sensor_id;sensor_type;location;lat;lon;timestamp;pressure;altitude;pressure_sealevel;temperature;humidity
788;BME280;16074;42.708;23.312;2022-10-18T00:01:07;140543.06;;;9.25;70.02
788;BME280;16074;42.708;23.312;2022-10-18T00:03:36;140533.44;;;9.21;69.80
788;BME280;16074;42.708;23.312;2022-10-18T00:06:05;140534.69;;;9.22;69.62
788;BME280;16074;42.708;23.312;2022-10-18T00:08:35;140528.66;;;9.19;69.76
788;BME280;16074;42.708;23.312;2022-10-18T00:11:07;140528.66;;;9.19;69.50
788;BME280;16074;42.708;23.312;2022-10-18T00:13:35;140522.66;;;9.17;69.63
788;BME280;16074;42.708;23.312;2022-10-18T00:16:08;140519.03;;;9.15;69.68
788;BME280;16074;42.708;23.312;2022-10-18T00:18:36;140516.63;;;9.14;69.45
788;BME280;16074;42.708;23.312;2022-10-18T00:21:06;140508.22;;;9.11;69.40
788;BME280;16074;42.708;23.312;2022-10-18T00:23:35;140502.19;;;9.08;70.27
788;BME280;16074;42.708;23.312;2022-10-18T00:26:07;140479.34;;;8.99;71.73
788;BME280;16074;42.708;23.312;2022-10-18T00:28:36;140487.78;;;9.02;71.75
788;BME280;16074;42.708;23.312;2022-10-18T00:31:10;140436.06;;;8.81;73.20
788;BME280;16074;42.708;23.312;2022-10-18T00:33:39;140406.03;;;8.68;73.44
788;BME280;16074;42.708;23.312;2022-10-18T00:36:08;140414.47;;;8.72;73.78
788;BME280;16074;42.708;23.312;2022-10-18T00:38:37;140394.00;;;8.63;74.67
788;BME280;16074;42.708;23.312;2022-10-18T00:41:08;140380.78;;;8.58;74.39
788;BME280;16074;42.708;23.312;2022-10-18T00:43:52;140381.97;;;8.58;74.79
788;BME280;16074;42.708;23.312;2022-10-18T00:46:21;140395.22;;;8.64;73.89
788;BME280;16074;42.708;23.312;2022-10-18T00:48:50;140397.63;;;8.65;73.25
788;BME280;16074;42.708;23.312;2022-10-18T00:51:20;140395.22;;;8.64;73.56
788;BME280;16074;42.708;23.312;2022-10-18T00:53:49;140407.25;;;8.69;74.15
788;BME280;16074;42.708;23.312;2022-10-18T00:56:19;140397.63;;;8.65;74.60
788;BME280;16074;42.708;23.312;2022-10-18T00:58:48;140404.84;;;8.68;74.62
788;BME280;16074;42.708;23.312;2022-10-18T01:01:16;140404.84;;;8.68;74.21
788;BME280;16074;42.708;23.312;2022-10-18T01:03:44;140403.63;;;8.67;74.55
788;BME280;16074;42.708;23.312;2022-10-18T01:06:13;140396.41;;;8.64;73.94
788;BME280;16074;42.708;23.312;2022-10-18T01:08:52;140408.44;;;8.69;73.32
788;BME280;16074;42.708;23.312;2022-10-18T01:14:29;140413.25;;;8.71;73.73
788;BME280;16074;42.708;23.312;2022-10-18T01:17:07;140410.84;;;8.70;72.60
788;BME280;16074;42.708;23.312;2022-10-18T01:22:43;140398.81;;;8.65;74.16
788;BME280;16074;42.708;23.312;2022-10-18T01:25:22;140410.84;;;8.70;73.04
788;BME280;16074;42.708;23.312;2022-10-18T01:27:58;140402.44;;;8.67;72.59
788;BME280;16074;42.708;23.312;2022-10-18T01:30:46;140401.22;;;8.66;72.98
788;BME280;16074;42.708;23.312;2022-10-18T01:33:24;140397.63;;;8.65;73.15
788;BME280;16074;42.708;23.312;2022-10-18T01:35:58;140390.41;;;8.62;73.53
788;BME280;16074;42.708;23.312;2022-10-18T01:38:29;140397.63;;;8.65;74.12
788;BME280;16074;42.708;23.312;2022-10-18T01:41:00;140380.78;;;8.58;74.00
788;BME280;16074;42.708;23.312;2022-10-18T01:43:31;140365.16;;;8.51;75.09
788;BME280;16074;42.708;23.312;2022-10-18T01:46:03;140361.56;;;8.50;74.88
788;BME280;16074;42.708;23.312;2022-10-18T01:48:31;140355.56;;;8.47;75.01
788;BME280;16074;42.708;23.312;2022-10-18T01:51:04;140351.94;;;8.46;75.64
788;BME280;16074;42.708;23.312;2022-10-18T01:53:33;140347.13;;;8.44;76.44
788;BME280;16074;42.708;23.312;2022-10-18T01:56:23;140341.16;;;8.41;76.90
788;BME280;16074;42.708;23.312;2022-10-18T01:59:05;140333.94;;;8.38;77.04
788;BME280;16074;42.708;23.312;2022-10-18T02:01:47;140331.53;;;8.37;77.24
788;BME280;16074;42.708;23.312;2022-10-18T02:04:26;140306.28;;;8.27;77.61
788;BME280;16074;42.708;23.312;2022-10-18T02:07:02;140326.72;;;8.35;77.22
788;BME280;16074;42.708;23.312;2022-10-18T02:09:36;140302.69;;;8.26;77.21
788;BME280;16074;42.708;23.312;2022-10-18T02:12:10;140282.28;;;8.17;77.99
788;BME280;16074;42.708;23.312;2022-10-18T02:14:42;140288.25;;;8.20;77.49
788;BME280;16074;42.708;23.312;2022-10-18T02:17:14;140261.78;;;8.09;77.79
788;BME280;16074;42.708;23.312;2022-10-18T02:19:46;140248.59;;;8.03;78.19
788;BME280;16074;42.708;23.312;2022-10-18T02:22:17;140265.41;;;8.10;77.59
788;BME280;16074;42.708;23.312;2022-10-18T02:24:50;140256.97;;;8.07;77.95
788;BME280;16074;42.708;23.312;2022-10-18T02:27:20;140236.56;;;7.98;78.37
788;BME280;16074;42.708;23.312;2022-10-18T02:29:49;140243.78;;;8.01;78.33
788;BME280;16074;42.708;23.312;2022-10-18T02:32:25;140217.34;;;7.90;78.00
788;BME280;16074;42.708;23.312;2022-10-18T02:34:58;140190.91;;;7.79;78.97
788;BME280;16074;42.708;23.312;2022-10-18T02:37:32;140205.34;;;7.85;79.18
788;BME280;16074;42.708;23.312;2022-10-18T02:40:03;140208.97;;;7.87;78.42
788;BME280;16074;42.708;23.312;2022-10-18T02:42:33;140217.34;;;7.90;77.98
788;BME280;16074;42.708;23.312;2022-10-18T02:45:03;140212.53;;;7.88;78.03
788;BME280;16074;42.708;23.312;2022-10-18T02:47:33;140204.16;;;7.85;77.82
788;BME280;16074;42.708;23.312;2022-10-18T02:50:01;140192.16;;;7.80;77.99
788;BME280;16074;42.708;23.312;2022-10-18T02:52:29;140182.53;;;7.76;77.88
788;BME280;16074;42.708;23.312;2022-10-18T02:54:58;140171.69;;;7.71;78.63
788;BME280;16074;42.708;23.312;2022-10-18T02:57:27;140177.72;;;7.74;78.25
788;BME280;16074;42.708;23.312;2022-10-18T02:59:56;140163.31;;;7.68;78.68
788;BME280;16074;42.708;23.312;2022-10-18T03:02:25;140145.31;;;7.60;79.21
788;BME280;16074;42.708;23.312;2022-10-18T03:04:54;140130.91;;;7.54;80.20
788;BME280;16074;42.708;23.312;2022-10-18T03:07:23;140132.09;;;7.55;80.74
788;BME280;16074;42.708;23.312;2022-10-18T03:09:51;140134.50;;;7.56;81.30
788;BME280;16074;42.708;23.312;2022-10-18T03:12:19;140129.69;;;7.54;81.46
788;BME280;16074;42.708;23.312;2022-10-18T03:14:47;140139.28;;;7.58;81.13
788;BME280;16074;42.708;23.312;2022-10-18T03:17:16;140144.09;;;7.60;80.47
788;BME280;16074;42.708;23.312;2022-10-18T03:19:44;140118.91;;;7.49;81.16
788;BME280;16074;42.708;23.312;2022-10-18T03:22:13;140118.91;;;7.49;81.04
788;BME280;16074;42.708;23.312;2022-10-18T03:24:42;140122.47;;;7.51;81.48
788;BME280;16074;42.708;23.312;2022-10-18T03:27:11;140121.31;;;7.50;80.70
788;BME280;16074;42.708;23.312;2022-10-18T03:29:39;140096.06;;;7.40;82.48
788;BME280;16074;42.708;23.312;2022-10-18T03:32:07;140122.47;;;7.51;81.89
788;BME280;16074;42.708;23.312;2022-10-18T03:34:36;140117.69;;;7.49;82.33
788;BME280;16074;42.708;23.312;2022-10-18T03:37:04;140122.47;;;7.51;81.56
788;BME280;16074;42.708;23.312;2022-10-18T03:39:33;140111.69;;;7.46;81.69
788;BME280;16074;42.708;23.312;2022-10-18T03:42:02;140103.25;;;7.43;81.40
788;BME280;16074;42.708;23.312;2022-10-18T03:44:30;140108.06;;;7.45;81.30
788;BME280;16074;42.708;23.312;2022-10-18T03:46:58;140099.69;;;7.41;81.36
788;BME280;16074;42.708;23.312;2022-10-18T03:49:26;140098.47;;;7.41;81.13
788;BME280;16074;42.708;23.312;2022-10-18T03:51:54;140093.66;;;7.39;80.62
788;BME280;16074;42.708;23.312;2022-10-18T03:54:22;140084.09;;;7.35;80.95
788;BME280;16074;42.708;23.312;2022-10-18T03:56:52;140080.47;;;7.33;80.92
788;BME280;16074;42.708;23.312;2022-10-18T03:59:20;140075.66;;;7.31;80.66
788;BME280;16074;42.708;23.312;2022-10-18T04:01:49;140084.09;;;7.35;80.54
788;BME280;16074;42.708;23.312;2022-10-18T04:04:17;140084.09;;;7.35;80.21
788;BME280;16074;42.708;23.312;2022-10-18T04:06:45;140072.09;;;7.30;80.52
788;BME280;16074;42.708;23.312;2022-10-18T04:09:14;140064.88;;;7.27;80.77
788;BME280;16074;42.708;23.312;2022-10-18T04:11:42;140058.88;;;7.24;80.74
788;BME280;16074;42.708;23.312;2022-10-18T04:14:11;140048.06;;;7.20;80.55
788;BME280;16074;42.708;23.312;2022-10-18T04:16:39;140044.44;;;7.18;80.51
788;BME280;16074;42.708;23.312;2022-10-18T04:19:08;140042.06;;;7.17;80.30
788;BME280;16074;42.708;23.312;2022-10-18T04:21:36;140033.66;;;7.14;80.73
788;BME280;16074;42.708;23.312;2022-10-18T04:24:05;140021.66;;;7.09;80.25
788;BME280;16074;42.708;23.312;2022-10-18T04:26:34;139997.66;;;6.99;80.57
788;BME280;16074;42.708;23.312;2022-10-18T04:29:02;140000.06;;;7.00;81.13
788;BME280;16074;42.708;23.312;2022-10-18T04:31:32;139985.66;;;6.94;80.88
788;BME280;16074;42.708;23.312;2022-10-18T04:34:00;139974.88;;;6.90;80.72
788;BME280;16074;42.708;23.312;2022-10-18T04:36:30;139978.44;;;6.91;81.04
788;BME280;16074;42.708;23.312;2022-10-18T04:38:58;139982.06;;;6.93;81.07
788;BME280;16074;42.708;23.312;2022-10-18T04:41:26;139973.66;;;6.89;81.00
788;BME280;16074;42.708;23.312;2022-10-18T04:43:54;139976.06;;;6.90;80.62
788;BME280;16074;42.708;23.312;2022-10-18T04:46:22;139976.06;;;6.90;80.50
788;BME280;16074;42.708;23.312;2022-10-18T04:48:52;139965.28;;;6.86;80.90
788;BME280;16074;42.708;23.312;2022-10-18T04:51:20;139968.84;;;6.87;80.84
788;BME280;16074;42.708;23.312;2022-10-18T04:53:48;139955.69;;;6.82;80.60
788;BME280;16074;42.708;23.312;2022-10-18T04:56:16;139964.06;;;6.85;80.33
788;BME280;16074;42.708;23.312;2022-10-18T04:58:45;139956.84;;;6.82;80.65
788;BME280;16074;42.708;23.312;2022-10-18T05:01:13;139953.28;;;6.81;80.44
788;BME280;16074;42.708;23.312;2022-10-18T05:03:43;139949.69;;;6.79;80.45
788;BME280;16074;42.708;23.312;2022-10-18T05:06:12;139938.88;;;6.75;80.36
788;BME280;16074;42.708;23.312;2022-10-18T05:08:40;139934.06;;;6.73;80.96
788;BME280;16074;42.708;23.312;2022-10-18T05:11:09;139910.06;;;6.63;80.57
788;BME280;16074;42.708;23.312;2022-10-18T05:13:37;139886.06;;;6.53;81.62
788;BME280;16074;42.708;23.312;2022-10-18T05:16:05;139878.91;;;6.50;81.13
788;BME280;16074;42.708;23.312;2022-10-18T05:18:34;139874.13;;;6.48;81.71
788;BME280;16074;42.708;23.312;2022-10-18T05:21:02;139883.66;;;6.52;81.97
788;BME280;16074;42.708;23.312;2022-10-18T05:23:32;139893.28;;;6.56;81.58
788;BME280;16074;42.708;23.312;2022-10-18T05:26:03;139896.91;;;6.57;81.93
788;BME280;16074;42.708;23.312;2022-10-18T05:28:32;139899.28;;;6.58;82.50
788;BME280;16074;42.708;23.312;2022-10-18T05:31:08;139910.06;;;6.63;82.41
788;BME280;16074;42.708;23.312;2022-10-18T05:33:36;139932.91;;;6.72;81.62
788;BME280;16074;42.708;23.312;2022-10-18T05:36:05;139942.50;;;6.76;81.64
788;BME280;16074;42.708;23.312;2022-10-18T05:38:37;139956.84;;;6.82;81.97
788;BME280;16074;42.708;23.312;2022-10-18T05:41:05;139966.44;;;6.86;82.00
788;BME280;16074;42.708;23.312;2022-10-18T05:43:33;139983.25;;;6.93;82.17
788;BME280;16074;42.708;23.312;2022-10-18T05:46:02;139997.66;;;6.99;81.10
788;BME280;16074;42.708;23.312;2022-10-18T05:48:35;140003.69;;;7.02;81.54
788;BME280;16074;42.708;23.312;2022-10-18T05:51:03;140004.84;;;7.02;80.94
788;BME280;16074;42.708;23.312;2022-10-18T05:53:31;140004.84;;;7.02;80.63
788;BME280;16074;42.708;23.312;2022-10-18T05:56:06;140026.47;;;7.11;80.89
788;BME280;16074;42.708;23.312;2022-10-18T05:58:35;140049.25;;;7.20;80.19
788;BME280;16074;42.708;23.312;2022-10-18T06:01:04;140090.09;;;7.37;79.83
788;BME280;16074;42.708;23.312;2022-10-18T06:03:33;140114.09;;;7.47;78.72
788;BME280;16074;42.708;23.312;2022-10-18T06:06:03;140114.09;;;7.47;78.46
788;BME280;16074;42.708;23.312;2022-10-18T06:08:32;140142.91;;;7.59;78.27
788;BME280;16074;42.708;23.312;2022-10-18T06:11:06;140188.50;;;7.78;78.08
788;BME280;16074;42.708;23.312;2022-10-18T06:13:38;140228.13;;;7.95;77.72
788;BME280;16074;42.708;23.312;2022-10-18T06:16:07;140273.81;;;8.14;77.04
788;BME280;16074;42.708;23.312;2022-10-18T06:18:36;140312.31;;;8.29;76.29
788;BME280;16074;42.708;23.312;2022-10-18T06:21:05;140385.59;;;8.60;75.44
788;BME280;16074;42.708;23.312;2022-10-18T06:23:33;140472.13;;;8.96;73.33
788;BME280;16074;42.708;23.312;2022-10-18T06:26:03;140559.91;;;9.32;71.05
788;BME280;16074;42.708;23.312;2022-10-18T06:28:34;140653.72;;;9.71;69.52
788;BME280;16074;42.708;23.312;2022-10-18T06:31:03;140765.69;;;10.17;68.23
788;BME280;16074;42.708;23.312;2022-10-18T06:33:33;140818.69;;;10.39;67.05
788;BME280;16074;42.708;23.312;2022-10-18T06:36:03;140833.13;;;10.45;64.81
788;BME280;16074;42.708;23.312;2022-10-18T06:38:32;140958.38;;;10.97;64.23
788;BME280;16074;42.708;23.312;2022-10-18T06:41:02;141041.50;;;11.31;63.41
788;BME280;16074;42.708;23.312;2022-10-18T06:43:31;141139.13;;;11.72;61.51
788;BME280;16074;42.708;23.312;2022-10-18T06:46:01;141225.97;;;12.07;60.50
788;BME280;16074;42.708;23.312;2022-10-18T06:48:31;141357.41;;;12.62;58.63
788;BME280;16074;42.708;23.312;2022-10-18T06:51:01;141414.09;;;12.85;57.09
788;BME280;16074;42.708;23.312;2022-10-18T06:53:32;141497.44;;;13.19;56.42
788;BME280;16074;42.708;23.312;2022-10-18T06:56:05;141546.91;;;13.40;55.59
788;BME280;16074;42.708;23.312;2022-10-18T06:58:34;141606.06;;;13.64;54.52
788;BME280;16074;42.708;23.312;2022-10-18T07:01:06;141751.06;;;14.24;53.21
788;BME280;16074;42.708;23.312;2022-10-18T07:03:35;141787.34;;;14.39;51.94
788;BME280;16074;42.708;23.312;2022-10-18T07:06:05;141806.69;;;14.47;50.71
788;BME280;16074;42.708;23.312;2022-10-18T07:08:34;141897.34;;;14.84;50.88
788;BME280;16074;42.708;23.312;2022-10-18T07:11:02;141908.19;;;14.89;50.18
788;BME280;16074;42.708;23.312;2022-10-18T07:13:32;141977.09;;;15.17;49.67
788;BME280;16074;42.708;23.312;2022-10-18T07:16:02;142002.59;;;15.28;48.27
788;BME280;16074;42.708;23.312;2022-10-18T07:18:33;142067.88;;;15.54;47.73
788;BME280;16074;42.708;23.312;2022-10-18T07:21:02;142145.28;;;15.86;47.23
788;BME280;16074;42.708;23.312;2022-10-18T07:23:32;142141.66;;;15.85;47.09
788;BME280;16074;42.708;23.312;2022-10-18T07:26:02;142193.69;;;16.06;46.14
788;BME280;16074;42.708;23.312;2022-10-18T07:28:30;142233.63;;;16.23;45.96
788;BME280;16074;42.708;23.312;2022-10-18T07:31:03;142237.28;;;16.24;46.00
788;BME280;16074;42.708;23.312;2022-10-18T07:33:33;142233.63;;;16.23;45.44
788;BME280;16074;42.708;23.312;2022-10-18T07:36:05;142289.38;;;16.46;45.29
788;BME280;16074;42.708;23.312;2022-10-18T07:38:34;142237.28;;;16.24;45.96
788;BME280;16074;42.708;23.312;2022-10-18T07:41:04;142358.38;;;16.74;44.87
788;BME280;16074;42.708;23.312;2022-10-18T07:43:33;142408.03;;;16.94;43.97
788;BME280;16074;42.708;23.312;2022-10-18T07:46:03;142464.97;;;17.18;43.84
788;BME280;16074;42.708;23.312;2022-10-18T07:48:33;142546.19;;;17.51;43.10
788;BME280;16074;42.708;23.312;2022-10-18T07:51:03;142541.34;;;17.49;43.01
788;BME280;16074;42.708;23.312;2022-10-18T07:53:31;142649.22;;;17.94;42.20
788;BME280;16074;42.708;23.312;2022-10-18T07:56:02;142681.94;;;18.07;41.81
788;BME280;16074;42.708;23.312;2022-10-18T07:58:35;142614.06;;;17.79;42.26
788;BME280;16074;42.708;23.312;2022-10-18T08:01:04;142669.81;;;18.02;42.15
788;BME280;16074;42.708;23.312;2022-10-18T08:03:35;142691.63;;;18.11;41.86
788;BME280;16074;42.708;23.312;2022-10-18T08:06:04;142696.47;;;18.13;42.09
788;BME280;16074;42.708;23.312;2022-10-18T08:08:36;142551.03;;;17.53;42.11
788;BME280;16074;42.708;23.312;2022-10-18T08:11:05;142639.50;;;17.90;42.69
788;BME280;16074;42.708;23.312;2022-10-18T08:13:34;142743.81;;;18.32;42.04
788;BME280;16074;42.708;23.312;2022-10-18T08:16:05;142808.09;;;18.59;41.28
788;BME280;16074;42.708;23.312;2022-10-18T08:18:35;142885.75;;;18.91;40.85
788;BME280;16074;42.708;23.312;2022-10-18T08:21:04;142996.19;;;19.36;40.35
788;BME280;16074;42.708;23.312;2022-10-18T08:23:34;142985.28;;;19.31;39.68
788;BME280;16074;42.708;23.312;2022-10-18T08:26:03;142975.56;;;19.27;39.23
788;BME280;16074;42.708;23.312;2022-10-18T08:28:32;143038.72;;;19.53;39.91
788;BME280;16074;42.708;23.312;2022-10-18T08:31:03;143013.19;;;19.43;39.58
788;BME280;16074;42.708;23.312;2022-10-18T08:33:32;143100.63;;;19.79;39.38
788;BME280;16074;42.708;23.312;2022-10-18T08:36:05;143154.06;;;20.01;38.98
788;BME280;16074;42.708;23.312;2022-10-18T08:38:34;143001.03;;;19.38;39.56
788;BME280;16074;42.708;23.312;2022-10-18T08:41:27;143064.19;;;19.64;39.26
788;BME280;16074;42.708;23.312;2022-10-18T08:44:04;143138.25;;;19.94;38.68
788;BME280;16074;42.708;23.312;2022-10-18T08:46:36;143226.97;;;20.31;38.42
788;BME280;16074;42.708;23.312;2022-10-18T08:49:10;143271.91;;;20.49;37.90
788;BME280;16074;42.708;23.312;2022-10-18T08:51:44;143309.56;;;20.64;38.01
788;BME280;16074;42.708;23.312;2022-10-18T08:54:15;143387.34;;;20.96;38.07
788;BME280;16074;42.708;23.312;2022-10-18T08:56:51;143455.44;;;21.24;37.48
788;BME280;16074;42.708;23.312;2022-10-18T08:59:23;143399.50;;;21.01;37.43
788;BME280;16074;42.708;23.312;2022-10-18T09:02:00;143440.84;;;21.18;37.01
788;BME280;16074;42.708;23.312;2022-10-18T09:04:39;143541.81;;;21.60;36.73
788;BME280;16074;42.708;23.312;2022-10-18T09:07:27;143634.22;;;21.97;36.58
788;BME280;16074;42.708;23.312;2022-10-18T09:10:06;143629.38;;;21.95;35.39
788;BME280;16074;42.708;23.312;2022-10-18T09:12:51;143602.59;;;21.84;36.33
788;BME280;16074;42.708;23.312;2022-10-18T09:15:28;143622.06;;;21.92;36.14
788;BME280;16074;42.708;23.312;2022-10-18T09:18:12;143703.56;;;22.26;35.69
788;BME280;16074;42.708;23.312;2022-10-18T09:20:48;143634.22;;;21.97;35.40
788;BME280;16074;42.708;23.312;2022-10-18T09:23:20;143690.22;;;22.20;35.13
788;BME280;16074;42.708;23.312;2022-10-18T09:25:54;143720.63;;;22.33;35.39
788;BME280;16074;42.708;23.312;2022-10-18T09:28:33;143738.91;;;22.40;34.94
788;BME280;16074;42.708;23.312;2022-10-18T09:31:06;143777.84;;;22.56;35.51
788;BME280;16074;42.708;23.312;2022-10-18T09:33:45;143821.69;;;22.74;34.88
788;BME280;16074;42.708;23.312;2022-10-18T09:36:18;143915.47;;;23.12;34.67
788;BME280;16074;42.708;23.312;2022-10-18T09:38:52;143964.16;;;23.32;34.70
788;BME280;16074;42.708;23.312;2022-10-18T09:41:29;144075.00;;;23.78;34.08
788;BME280;16074;42.708;23.312;2022-10-18T09:44:02;144155.44;;;24.11;32.97
788;BME280;16074;42.708;23.312;2022-10-18T09:46:38;144218.84;;;24.36;32.74
788;BME280;16074;42.708;23.312;2022-10-18T09:49:13;144118.94;;;23.96;32.68
788;BME280;16074;42.708;23.312;2022-10-18T09:51:44;144173.75;;;24.18;32.58
788;BME280;16074;42.708;23.312;2022-10-18T09:54:21;144166.44;;;24.15;33.37
788;BME280;16074;42.708;23.312;2022-10-18T09:56:56;144201.78;;;24.29;32.14
788;BME280;16074;42.708;23.312;2022-10-18T09:59:31;144250.59;;;24.49;32.40
788;BME280;16074;42.708;23.312;2022-10-18T10:02:01;144265.22;;;24.55;32.07
788;BME280;16074;42.708;23.312;2022-10-18T10:04:29;144311.50;;;24.74;31.93
788;BME280;16074;42.708;23.312;2022-10-18T10:06:59;144338.34;;;24.85;31.58
788;BME280;16074;42.708;23.312;2022-10-18T10:09:35;144301.75;;;24.70;31.60
788;BME280;16074;42.708;23.312;2022-10-18T10:12:04;144368.81;;;24.98;31.50
788;BME280;16074;42.708;23.312;2022-10-18T10:14:41;144396.91;;;25.09;30.84
788;BME280;16074;42.708;23.312;2022-10-18T10:17:20;144446.94;;;25.30;30.60
788;BME280;16074;42.708;23.312;2022-10-18T10:19:56;144511.59;;;25.56;30.70
788;BME280;16074;42.708;23.312;2022-10-18T10:22:27;144420.09;;;25.19;29.93
788;BME280;16074;42.708;23.312;2022-10-18T10:25:00;144517.66;;;25.58;29.88
788;BME280;16074;42.708;23.312;2022-10-18T10:27:31;144428.63;;;25.22;29.22
788;BME280;16074;42.708;23.312;2022-10-18T10:30:01;144529.88;;;25.63;29.01
788;BME280;16074;42.708;23.312;2022-10-18T10:32:44;144564.03;;;25.77;28.33
788;BME280;16074;42.708;23.312;2022-10-18T10:35:27;144588.50;;;25.87;27.60
788;BME280;16074;42.708;23.312;2022-10-18T10:38:23;144666.59;;;26.19;27.53
788;BME280;16074;42.708;23.312;2022-10-18T10:40:53;144728.91;;;26.45;26.40
788;BME280;16074;42.708;23.312;2022-10-18T10:43:23;144759.44;;;26.57;26.50
788;BME280;16074;42.708;23.312;2022-10-18T10:46:08;144727.69;;;26.44;26.13
788;BME280;16074;42.708;23.312;2022-10-18T10:48:44;144737.47;;;26.48;25.87
788;BME280;16074;42.708;23.312;2022-10-18T10:51:16;144655.63;;;26.15;25.68
788;BME280;16074;42.708;23.312;2022-10-18T10:53:47;144726.41;;;26.44;25.40
788;BME280;16074;42.708;23.312;2022-10-18T10:56:30;144789.97;;;26.70;25.51
788;BME280;16074;42.708;23.312;2022-10-18T10:59:05;144825.38;;;26.84;25.04
788;BME280;16074;42.708;23.312;2022-10-18T11:01:35;144764.34;;;26.59;25.05
788;BME280;16074;42.708;23.312;2022-10-18T11:04:22;144725.22;;;26.43;24.89
788;BME280;16074;42.708;23.312;2022-10-18T11:06:59;144692.25;;;26.30;24.73
788;BME280;16074;42.708;23.312;2022-10-18T11:09:36;144688.56;;;26.28;24.28
788;BME280;16074;42.708;23.312;2022-10-18T11:12:29;144754.56;;;26.55;24.78
788;BME280;16074;42.708;23.312;2022-10-18T11:15:16;144820.47;;;26.82;23.56
788;BME280;16074;42.708;23.312;2022-10-18T11:17:50;144863.22;;;26.99;23.54
788;BME280;16074;42.708;23.312;2022-10-18T11:20:26;144887.69;;;27.09;22.75
788;BME280;16074;42.708;23.312;2022-10-18T11:22:58;144849.78;;;26.94;23.33
788;BME280;16074;42.708;23.312;2022-10-18T11:25:41;144909.69;;;27.18;23.37
788;BME280;16074;42.708;23.312;2022-10-18T11:28:20;144959.78;;;27.39;23.01
788;BME280;16074;42.708;23.312;2022-10-18T11:30:59;144975.69;;;27.45;22.65
788;BME280;16074;42.708;23.312;2022-10-18T11:33:38;144967.09;;;27.42;22.29
788;BME280;16074;42.708;23.312;2022-10-18T11:36:35;144967.09;;;27.42;22.25
788;BME280;16074;42.708;23.312;2022-10-18T11:39:28;145007.41;;;27.58;22.50
788;BME280;16074;42.708;23.312;2022-10-18T11:42:07;145016.00;;;27.62;21.96
788;BME280;16074;42.708;23.312;2022-10-18T11:44:47;145057.56;;;27.79;21.50
788;BME280;16074;42.708;23.312;2022-10-18T11:47:22;145101.56;;;27.97;21.47
788;BME280;16074;42.708;23.312;2022-10-18T11:50:04;145149.25;;;28.16;20.70
788;BME280;16074;42.708;23.312;2022-10-18T11:52:41;145130.94;;;28.08;20.08
788;BME280;16074;42.708;23.312;2022-10-18T11:55:24;145009.88;;;27.59;20.11
788;BME280;16074;42.708;23.312;2022-10-18T11:58:05;145018.44;;;27.63;20.52
788;BME280;16074;42.708;23.312;2022-10-18T12:00:44;144914.59;;;27.20;20.39
788;BME280;16074;42.708;23.312;2022-10-18T12:03:23;144946.34;;;27.33;20.18
788;BME280;16074;42.708;23.312;2022-10-18T12:05:56;144941.47;;;27.31;19.74
788;BME280;16074;42.708;23.312;2022-10-18T12:08:29;144954.88;;;27.37;20.11
788;BME280;16074;42.708;23.312;2022-10-18T12:11:02;145030.72;;;27.68;20.51
788;BME280;16074;42.708;23.312;2022-10-18T12:13:37;145083.25;;;27.89;19.45
788;BME280;16074;42.708;23.312;2022-10-18T12:16:09;145100.38;;;27.96;19.62
788;BME280;16074;42.708;23.312;2022-10-18T12:18:46;145116.25;;;28.02;18.92
788;BME280;16074;42.708;23.312;2022-10-18T12:21:18;145106.47;;;27.98;19.01
788;BME280;16074;42.708;23.312;2022-10-18T12:23:54;145122.34;;;28.05;19.91
788;BME280;16074;42.708;23.312;2022-10-18T12:26:24;145175.00;;;28.26;19.89
788;BME280;16074;42.708;23.312;2022-10-18T12:29:07;145216.53;;;28.43;19.00
788;BME280;16074;42.708;23.312;2022-10-18T12:31:43;145248.34;;;28.56;18.48
788;BME280;16074;42.708;23.312;2022-10-18T12:34:26;145323.00;;;28.87;17.98
788;BME280;16074;42.708;23.312;2022-10-18T12:37:21;145357.25;;;29.01;17.43
788;BME280;16074;42.708;23.312;2022-10-18T12:39:57;145305.81;;;28.80;16.84
788;BME280;16074;42.708;23.312;2022-10-18T12:42:48;145275.25;;;28.67;16.96
788;BME280;16074;42.708;23.312;2022-10-18T12:45:23;145304.59;;;28.79;17.21
788;BME280;16074;42.708;23.312;2022-10-18T12:47:58;145249.59;;;28.57;17.01
788;BME280;16074;42.708;23.312;2022-10-18T12:50:30;145272.81;;;28.66;17.19
788;BME280;16074;42.708;23.312;2022-10-18T12:53:05;145342.56;;;28.95;17.86
788;BME280;16074;42.708;23.312;2022-10-18T12:55:40;145381.72;;;29.11;18.12
788;BME280;16074;42.708;23.312;2022-10-18T12:58:25;145378.03;;;29.09;17.51
788;BME280;16074;42.708;23.312;2022-10-18T13:00:59;145437.97;;;29.33;17.40
788;BME280;16074;42.708;23.312;2022-10-18T13:03:38;145485.75;;;29.53;16.50
788;BME280;16074;42.708;23.312;2022-10-18T13:06:06;145531.06;;;29.71;16.07
788;BME280;16074;42.708;23.312;2022-10-18T13:08:40;145527.34;;;29.70;16.00
788;BME280;16074;42.708;23.312;2022-10-18T13:11:32;145610.63;;;30.04;16.52
788;BME280;16074;42.708;23.312;2022-10-18T13:14:15;145599.63;;;29.99;16.32
788;BME280;16074;42.708;23.312;2022-10-18T13:16:50;145542.06;;;29.76;16.26
788;BME280;16074;42.708;23.312;2022-10-18T13:19:28;145610.63;;;30.04;16.47
788;BME280;16074;42.708;23.312;2022-10-18T13:22:12;145627.78;;;30.11;16.66
788;BME280;16074;42.708;23.312;2022-10-18T13:24:44;145666.97;;;30.27;16.32
788;BME280;16074;42.708;23.312;2022-10-18T13:27:30;145678.00;;;30.31;16.31
788;BME280;16074;42.708;23.312;2022-10-18T13:30:26;145664.50;;;30.26;16.70
788;BME280;16074;42.708;23.312;2022-10-18T13:33:04;145662.06;;;30.25;15.91
788;BME280;16074;42.708;23.312;2022-10-18T13:35:49;145663.31;;;30.25;16.06
788;BME280;16074;42.708;23.312;2022-10-18T13:38:43;145709.81;;;30.44;16.15
788;BME280;16074;42.708;23.312;2022-10-18T13:41:16;145771.13;;;30.69;16.15